aviador You're here:

KLUX Decoded Metar

LAURENS CTY in SC, USA
Report Time2017-06-27 04:55:00
UTC Time2017-06-27 05:13:43
Flight Rules vfr VFR
Wind250° at 03 kt
W.Decomp.*RWY 26: 3.0 kt HW 0.3 kt LCW
W.Rank250° ranks 9
Current wind is below 250° avg. (5.6)
Visibility9999 m
Phenomena:N/A
Clouds:Scattered 070 Hf
Expected CloudBase > 1,600 ft AGL from Temp-Dew spread
CeilingNone
Temp20°C (ISA +6)
Dew Point16°C (78% RH)
QNH1018 hPa
Density Alt1,522 ft
Elevation699 ft
Report Wrong Elevation
Raw Report
METAR KLUX 270455Z AUTO 25003KT 10SM SCT070 20/16 A3006 RMK AO2=

Extra information for KLUX:More info

Metar Taf Metar & Taf Last 4 Metars F.Rules Stats Wind Profile Meteogram Temp Stats Airport Information Weather charts Add Link Nearby VenuesMetar ALERT Operation Metar Decoded Social comments

AIRNAV info for KLUX